Overview Statistics Trail Chart Weather Telemetry Raw packets
 

This is the latest recevied weather packets stored in our database for station/object KO4DYK. If no packets are shown the sender has not sent any weather packets the latest 10 day(s).

<< 65 66 67 68 69 70 71 >>
Time Temp. Humidity Pressure Rain* Wind** Luminosity Snow
1788202612 35° C 54% 1019.8 hPa 0 mm - 760 W/m² -
1788202308 34.44° C 59% 1020 hPa 0 mm - 744 W/m² -
1788202007 33.89° C 60% 1019.8 hPa 0 mm - 766 W/m² -
1788201703 34.44° C 60% 1020.1 hPa 0 mm - 159 W/m² -
1788201403 35.56° C 55% 1020.1 hPa 0 mm - 164 W/m² -
1788201102 35.56° C 57% 1020.3 hPa 0 mm - 294 W/m² -
1788200801 35° C 57% 1020.4 hPa 0 mm - 162 W/m² -
1788200497 35° C 56% 1020.4 hPa 0 mm - 171 W/m² -
1788200192 35° C 53% 1020.6 hPa 0 mm - 229 W/m² -
1788199891 35° C 54% 1020.8 hPa 0 mm - 806 W/m² -
1788199587 36.11° C 53% 1020.6 hPa 0 mm - 812 W/m² -
1788199282 37.22° C 51% 1020.7 hPa 0 mm - 208 W/m² -
1788198976 36.11° C 51% 1020.8 hPa 0 mm - 798 W/m² -
1788198693 35.56° C 53% 1020.9 hPa 0 mm - 674 W/m² -
1788198368 36.11° C 53% 1020.9 hPa 0 mm - 751 W/m² -
1788198068 35° C 56% 1021 hPa 0 mm - 761 W/m² -
1788197766 35.56° C 54% 1021.1 hPa 0 mm - 176 W/m² -
1788197463 35° C 54% 1021.1 hPa 0 mm - 672 W/m² -
1788197157 34.44° C 59% 1021.4 hPa 0 mm - 721 W/m² -
1788196852 35° C 56% 1021.4 hPa 0 mm - 154 W/m² -
1788196548 35° C 56% 1021.2 hPa 0 mm - 766 W/m² -
1788196245 33.33° C 60% 1021.4 hPa 0 mm - 770 W/m² -
1788195940 32.78° C 62% 1021.3 hPa 0 mm - 125 W/m² -
1788195638 33.89° C 58% 1021.5 hPa 0 mm - 135 W/m² -
1788195338 34.44° C 60% 1021.5 hPa 0 mm - 759 W/m² -

* Rain latest hour (hover to see other rain measurements)
** Current wind speed in m/s (hover to see current wind gust speed)